createdAt,value
2022-10-02T00:01:33.891Z,72.39
2022-10-02T00:04:04.556Z,72.95
2022-10-02T00:06:43.349Z,73.15
2022-10-02T00:09:22.180Z,72.94
2022-10-02T00:11:58.209Z,72.61
2022-10-02T00:14:35.243Z,72.84
2022-10-02T00:17:05.403Z,72.97
2022-10-02T00:19:34.568Z,72.52
2022-10-02T00:22:22.380Z,71.92
2022-10-02T00:25:00.852Z,72.08
2022-10-02T00:27:50.888Z,72.18
2022-10-02T00:30:20.358Z,71.92
2022-10-02T00:33:05.254Z,71.42
2022-10-02T00:36:08.782Z,71.70
2022-10-02T00:38:52.438Z,71.57
2022-10-02T00:42:10.079Z,71.37
2022-10-02T00:44:57.576Z,71.57
2022-10-02T00:47:42.801Z,71.37
2022-10-02T00:50:29.552Z,71.35
2022-10-02T00:53:16.071Z,71.40
2022-10-02T00:56:10.127Z,71.36
2022-10-02T00:59:09.468Z,71.52
2022-10-02T01:01:47.329Z,71.45
2022-10-02T01:04:22.339Z,71.49
2022-10-02T01:06:51.568Z,71.78
2022-10-02T01:09:20.860Z,71.76
2022-10-02T01:11:50.242Z,71.39
2022-10-02T01:14:19.821Z,71.58
2022-10-02T01:16:50.552Z,71.80
2022-10-02T01:19:32.973Z,71.91
2022-10-02T01:22:12.743Z,71.79
2022-10-02T01:24:50.969Z,72.17
2022-10-02T01:27:20.545Z,72.50
2022-10-02T01:29:56.635Z,72.95
2022-10-02T01:32:28.230Z,72.79
2022-10-02T01:34:58.117Z,72.92
2022-10-02T01:37:31.957Z,73.15
2022-10-02T01:40:09.280Z,73.82
2022-10-02T01:42:39.840Z,73.15
2022-10-02T01:45:11.410Z,73.53
2022-10-02T01:47:52.148Z,73.60
2022-10-02T01:50:34.079Z,73.60
2022-10-02T01:53:13.278Z,74.05
2022-10-02T01:55:53.533Z,73.80
2022-10-02T01:58:33.810Z,73.99
2022-10-02T02:01:13.987Z,74.60
2022-10-02T02:03:54.450Z,74.20
2022-10-02T02:06:32.814Z,75.24
2022-10-02T02:09:10.776Z,75.35
2022-10-02T02:11:49.478Z,75.06
2022-10-02T02:14:25.858Z,75.47
2022-10-02T02:17:03.962Z,74.99
2022-10-02T02:19:38.881Z,75.56
2022-10-02T02:22:16.114Z,75.92
2022-10-02T02:24:52.374Z,75.73
2022-10-02T02:27:28.694Z,75.84
2022-10-02T02:30:08.310Z,76.41
2022-10-02T02:32:43.168Z,75.80
2022-10-02T02:35:17.508Z,76.29
2022-10-02T02:37:51.259Z,76.28
2022-10-02T02:40:25.716Z,76.41
2022-10-02T02:43:05.984Z,76.76
2022-10-02T02:45:39.589Z,76.28
2022-10-02T02:48:16.277Z,76.71
2022-10-02T02:50:50.096Z,77.17
2022-10-02T02:53:25.929Z,77.60
2022-10-02T02:56:00.586Z,77.18
2022-10-02T02:58:39.076Z,77.15
2022-10-02T03:01:08.364Z,76.79
2022-10-02T03:03:37.629Z,76.81
2022-10-02T03:06:28.305Z,76.76
2022-10-02T03:08:57.519Z,77.11
2022-10-02T03:11:46.169Z,77.19
2022-10-02T03:14:45.067Z,77.80
2022-10-02T03:17:28.139Z,76.99
2022-10-02T03:20:10.545Z,77.24
2022-10-02T03:22:52.712Z,77.20
2022-10-02T03:25:31.971Z,77.25
2022-10-02T03:28:08.249Z,76.76
2022-10-02T03:30:41.114Z,76.66
2022-10-02T03:33:15.333Z,77.67
2022-10-02T03:35:46.276Z,77.22
2022-10-02T03:38:17.317Z,77.49
2022-10-02T03:40:46.488Z,78.39
2022-10-02T03:43:22.841Z,77.85
2022-10-02T03:45:53.369Z,77.95
2022-10-02T03:48:22.838Z,78.38
2022-10-02T03:50:52.070Z,78.25
2022-10-02T03:53:25.789Z,78.97
2022-10-02T03:56:02.125Z,79.10
2022-10-02T03:58:31.682Z,78.69
2022-10-02T04:01:08.990Z,78.76
2022-10-02T04:03:42.557Z,78.57
2022-10-02T04:06:16.805Z,78.81
2022-10-02T04:08:52.835Z,78.53
2022-10-02T04:11:31.151Z,78.66
2022-10-02T04:14:10.951Z,79.09
2022-10-02T04:16:47.999Z,78.61
2022-10-02T04:19:23.689Z,78.98
2022-10-02T04:22:00.704Z,79.02
2022-10-02T04:24:38.563Z,79.13
2022-10-02T04:27:16.739Z,78.54
2022-10-02T04:29:51.885Z,79.13
2022-10-02T04:32:27.797Z,78.77
2022-10-02T04:34:58.040Z,79.05
2022-10-02T04:37:57.978Z,78.87
2022-10-02T04:40:54.806Z,78.89
2022-10-02T04:43:44.366Z,78.35
2022-10-02T04:46:47.694Z,78.80
2022-10-02T04:49:28.553Z,78.50
2022-10-02T04:52:16.253Z,78.51
2022-10-02T04:55:07.602Z,78.51
2022-10-02T04:58:12.172Z,78.45
2022-10-02T05:00:50.461Z,78.52
2022-10-02T05:03:49.245Z,78.12
2022-10-02T05:06:38.839Z,78.46
2022-10-02T05:09:24.821Z,78.22
2022-10-02T05:12:30.242Z,77.87
2022-10-02T05:15:19.382Z,77.46
2022-10-02T05:18:09.031Z,77.45
2022-10-02T05:21:07.793Z,77.33
2022-10-02T05:23:58.709Z,77.60
2022-10-02T05:26:48.690Z,77.21
2022-10-02T05:30:05.185Z,77.67
2022-10-02T05:33:10.736Z,78.00
2022-10-02T05:36:08.480Z,78.01
2022-10-02T05:39:03.635Z,78.44
2022-10-02T05:41:49.879Z,78.07
2022-10-02T05:44:23.664Z,77.43
2022-10-02T05:47:01.776Z,77.45
2022-10-02T05:49:36.135Z,77.47
2022-10-02T05:52:14.056Z,77.57
2022-10-02T05:54:55.908Z,77.56
2022-10-02T05:57:33.984Z,77.86
2022-10-02T06:00:18.220Z,78.22
2022-10-02T06:02:56.890Z,78.51
2022-10-02T06:05:31.684Z,78.19
2022-10-02T06:08:05.125Z,78.29
2022-10-02T06:10:42.786Z,78.73
2022-10-02T06:13:19.882Z,78.56
2022-10-02T06:15:53.784Z,78.33
2022-10-02T06:18:28.591Z,78.53
2022-10-02T06:21:03.776Z,78.08
2022-10-02T06:23:39.648Z,78.60
2022-10-02T06:26:17.965Z,79.12
2022-10-02T06:28:54.717Z,79.19
2022-10-02T06:31:35.503Z,78.95
2022-10-02T06:34:04.754Z,78.98
2022-10-02T06:37:05.938Z,78.87
2022-10-02T06:40:34.820Z,78.44
2022-10-02T06:43:15.063Z,78.14
2022-10-02T06:45:58.546Z,77.83
2022-10-02T06:48:41.007Z,77.76
2022-10-02T06:51:21.711Z,77.24
2022-10-02T06:54:11.979Z,77.44
2022-10-02T06:57:07.200Z,76.82
2022-10-02T06:59:59.246Z,76.70
2022-10-02T07:02:59.453Z,76.24
2022-10-02T07:05:55.409Z,76.65
2022-10-02T07:08:39.875Z,76.52
2022-10-02T07:11:20.660Z,76.06
2022-10-02T07:14:15.492Z,75.82
2022-10-02T07:17:03.180Z,74.86
2022-10-02T07:20:06.643Z,74.75
2022-10-02T07:22:56.483Z,74.78
2022-10-02T07:26:00.247Z,74.00
2022-10-02T07:28:38.617Z,74.01
2022-10-02T07:31:23.316Z,74.08
2022-10-02T07:34:13.251Z,73.52
2022-10-02T07:36:57.186Z,73.29
2022-10-02T07:39:46.457Z,73.86
2022-10-02T07:42:55.322Z,73.05
2022-10-02T07:45:37.963Z,73.79
2022-10-02T07:48:44.733Z,73.50
2022-10-02T07:51:56.410Z,73.00
2022-10-02T07:55:00.160Z,72.42
2022-10-02T07:57:39.567Z,73.53
2022-10-02T08:00:15.309Z,71.64
2022-10-02T08:02:58.150Z,72.39
2022-10-02T08:05:31.266Z,71.12
2022-10-02T08:08:08.350Z,71.73
2022-10-02T08:10:42.935Z,70.50
2022-10-02T08:13:20.647Z,68.72
2022-10-02T08:15:55.984Z,68.78
2022-10-02T08:18:35.339Z,69.97
2022-10-02T08:21:11.023Z,69.52
2022-10-02T08:23:48.568Z,69.96
2022-10-02T08:26:26.706Z,68.71
2022-10-02T08:29:05.547Z,67.22
2022-10-02T08:31:36.149Z,67.71
2022-10-02T08:34:18.189Z,64.71
2022-10-02T08:37:13.297Z,64.24
2022-10-02T08:40:28.556Z,63.02
2022-10-02T08:43:51.545Z,63.36
2022-10-02T08:47:40.701Z,63.47
2022-10-02T08:50:44.392Z,63.59
2022-10-02T08:54:15.659Z,63.37
2022-10-02T08:57:07.905Z,62.27
2022-10-02T09:00:08.265Z,60.70
2022-10-02T09:03:33.617Z,55.90
2022-10-02T09:07:00.898Z,56.86
2022-10-02T09:10:08.579Z,52.78
2022-10-02T09:13:34.833Z,52.73
2022-10-02T09:16:12.380Z,51.85
2022-10-02T09:19:00.150Z,50.53
2022-10-02T09:21:52.202Z,50.80
2022-10-02T09:25:15.967Z,49.07
2022-10-02T09:28:50.986Z,47.92
2022-10-02T09:32:34.579Z,48.46
2022-10-02T09:35:52.975Z,48.27
2022-10-02T09:39:05.837Z,48.73
2022-10-02T09:42:43.511Z,49.16
2022-10-02T09:46:21.741Z,49.81
2022-10-02T09:49:25.560Z,49.52
2022-10-02T09:52:58.230Z,50.02
2022-10-02T09:56:20.993Z,50.85
2022-10-02T09:59:32.905Z,50.99
2022-10-02T10:02:57.243Z,51.07
2022-10-02T10:05:59.242Z,51.71
2022-10-02T10:09:40.530Z,52.01
2022-10-02T10:12:49.481Z,52.72
2022-10-02T10:16:06.753Z,52.67
2022-10-02T10:19:23.734Z,52.64
2022-10-02T10:23:01.682Z,53.04
2022-10-02T10:26:08.885Z,52.73
2022-10-02T10:29:27.718Z,52.45
2022-10-02T10:32:54.975Z,52.06
2022-10-02T10:35:53.933Z,52.04
2022-10-02T10:38:43.172Z,51.79
2022-10-02T10:41:56.000Z,51.59
2022-10-02T10:44:59.682Z,50.55
2022-10-02T10:47:56.859Z,48.98
2022-10-02T10:50:50.240Z,48.37
2022-10-02T10:54:06.331Z,47.31
2022-10-02T10:56:40.524Z,48.22
2022-10-02T10:59:45.784Z,47.27
2022-10-02T11:02:54.700Z,42.81
2022-10-02T11:06:12.938Z,40.61
2022-10-02T11:09:28.242Z,39.43
2022-10-02T11:12:21.712Z,39.50
2022-10-02T11:15:17.714Z,40.00
2022-10-02T11:18:17.156Z,38.74
2022-10-02T11:21:21.241Z,39.27
2022-10-02T11:24:18.693Z,40.51
2022-10-02T11:27:25.081Z,40.06
2022-10-02T11:30:21.398Z,40.98
2022-10-02T11:33:41.572Z,40.85
2022-10-02T11:36:52.665Z,39.22
2022-10-02T11:39:59.376Z,37.38
2022-10-02T11:42:55.998Z,37.35
2022-10-02T11:45:55.704Z,37.84
2022-10-02T11:49:06.877Z,38.03
2022-10-02T11:52:12.961Z,39.08
2022-10-02T11:55:17.733Z,40.45
2022-10-02T11:58:06.328Z,40.98
2022-10-02T12:01:07.334Z,40.80
2022-10-02T12:03:57.806Z,41.80
2022-10-02T12:06:52.856Z,42.22
2022-10-02T12:09:34.174Z,40.71
2022-10-02T12:12:23.402Z,40.57
2022-10-02T12:15:06.574Z,39.06
2022-10-02T12:18:19.479Z,38.00
2022-10-02T12:21:27.015Z,36.05
2022-10-02T12:24:20.569Z,34.08
2022-10-02T12:27:04.096Z,35.30
2022-10-02T12:30:04.216Z,35.89
2022-10-02T12:33:02.294Z,35.67
2022-10-02T12:35:52.491Z,34.88
2022-10-02T12:38:36.069Z,34.06
2022-10-02T12:41:18.891Z,33.54
2022-10-02T12:44:33.531Z,33.15
2022-10-02T12:47:41.529Z,32.51
2022-10-02T12:50:23.498Z,32.19
2022-10-02T12:53:51.553Z,31.34
2022-10-02T12:57:08.732Z,32.01
2022-10-02T12:59:50.047Z,33.50
2022-10-02T13:03:05.574Z,34.55
2022-10-02T13:06:19.402Z,35.23
2022-10-02T13:09:16.626Z,36.48
2022-10-02T13:12:03.557Z,37.87
2022-10-02T13:14:54.851Z,39.78
2022-10-02T13:17:36.008Z,40.05
2022-10-02T13:20:20.453Z,40.68
2022-10-02T13:22:59.956Z,41.71
2022-10-02T13:25:54.551Z,43.00
2022-10-02T13:28:58.642Z,43.21
2022-10-02T13:31:55.549Z,43.95
2022-10-02T13:34:55.713Z,44.13
2022-10-02T13:37:39.294Z,44.39
2022-10-02T13:40:32.573Z,44.78
2022-10-02T13:43:58.661Z,45.02
2022-10-02T13:47:00.704Z,45.09
2022-10-02T13:49:54.257Z,45.19
2022-10-02T13:52:36.915Z,45.31
2022-10-02T13:55:26.106Z,45.25
2022-10-02T13:58:38.845Z,45.08
2022-10-02T14:01:24.950Z,44.53
2022-10-02T14:04:23.530Z,44.19
2022-10-02T14:07:05.507Z,43.41
2022-10-02T14:09:54.875Z,42.83
2022-10-02T14:12:33.841Z,43.12
2022-10-02T14:15:40.192Z,42.81
2022-10-02T14:18:45.737Z,42.99
2022-10-02T14:21:24.950Z,43.53
2022-10-02T14:24:46.798Z,44.54
2022-10-02T14:27:25.533Z,45.28
2022-10-02T14:30:03.531Z,45.63
2022-10-02T14:32:55.087Z,45.98
2022-10-02T14:35:43.105Z,46.78
2022-10-02T14:38:37.592Z,47.12
2022-10-02T14:41:40.340Z,47.10
2022-10-02T14:44:47.296Z,47.57
2022-10-02T14:47:31.016Z,47.48
2022-10-02T14:50:34.221Z,47.45
2022-10-02T14:53:34.969Z,47.48
2022-10-02T14:56:48.730Z,47.40
2022-10-02T14:59:42.498Z,47.75
2022-10-02T15:02:41.337Z,48.30
2022-10-02T15:05:34.550Z,48.24
2022-10-02T15:08:11.678Z,48.66
2022-10-02T15:10:42.297Z,48.52
2022-10-02T15:13:26.861Z,49.47
2022-10-02T15:16:20.619Z,48.94
2022-10-02T15:18:58.775Z,49.24
2022-10-02T15:21:33.133Z,49.54
2022-10-02T15:24:34.194Z,48.88
2022-10-02T15:27:21.833Z,48.48
2022-10-02T15:30:15.400Z,48.86
2022-10-02T15:33:00.437Z,49.01
2022-10-02T15:36:11.630Z,48.92
2022-10-02T15:39:17.138Z,49.42
2022-10-02T15:41:55.696Z,49.52
2022-10-02T15:45:13.795Z,49.92
2022-10-02T15:48:20.373Z,49.76
2022-10-02T15:50:58.817Z,50.01
2022-10-02T15:53:45.132Z,50.25
2022-10-02T15:56:57.693Z,50.82
2022-10-02T15:59:41.548Z,50.77
2022-10-02T16:02:27.298Z,50.40
2022-10-02T16:05:19.653Z,49.91
2022-10-02T16:08:46.699Z,50.28
2022-10-02T16:11:53.377Z,49.56
2022-10-02T16:14:38.063Z,49.70
2022-10-02T16:17:39.782Z,50.04
2022-10-02T16:20:31.990Z,50.05
2022-10-02T16:23:34.291Z,49.94
2022-10-02T16:26:20.947Z,50.40
2022-10-02T16:29:09.901Z,50.20
2022-10-02T16:32:04.432Z,50.48
2022-10-02T16:34:49.405Z,50.72
2022-10-02T16:37:29.327Z,50.65
2022-10-02T16:40:03.296Z,50.47
2022-10-02T16:42:49.378Z,50.89
2022-10-02T16:45:56.448Z,51.15
2022-10-02T16:48:38.682Z,50.99
2022-10-02T16:51:34.929Z,51.06
2022-10-02T16:54:18.525Z,50.96
2022-10-02T16:56:55.523Z,50.85
2022-10-02T16:59:29.484Z,50.56
2022-10-02T17:02:17.408Z,51.09
2022-10-02T17:05:03.400Z,51.16
2022-10-02T17:07:51.028Z,51.40
2022-10-02T17:10:34.635Z,51.25
2022-10-02T17:13:19.985Z,51.46
2022-10-02T17:15:56.585Z,51.94
2022-10-02T17:18:34.697Z,51.69
2022-10-02T17:21:16.966Z,51.82
2022-10-02T17:24:00.048Z,51.92
2022-10-02T17:26:40.988Z,52.17
2022-10-02T17:29:22.945Z,52.37
2022-10-02T17:31:54.841Z,52.46
2022-10-02T17:34:26.757Z,52.88
2022-10-02T17:37:07.252Z,53.25
2022-10-02T17:40:01.164Z,53.71
2022-10-02T17:42:46.289Z,53.64
2022-10-02T17:45:33.190Z,53.94
2022-10-02T17:48:20.605Z,54.22
2022-10-02T17:51:39.029Z,54.12
2022-10-02T17:54:42.611Z,54.26
2022-10-02T17:57:34.741Z,54.24
2022-10-02T18:00:21.396Z,54.54
2022-10-02T18:03:39.971Z,54.64
2022-10-02T18:06:21.427Z,55.03
2022-10-02T18:09:37.063Z,55.42
2022-10-02T18:12:36.539Z,55.37
2022-10-02T18:15:28.395Z,55.60
2022-10-02T18:18:19.112Z,55.78
2022-10-02T18:21:03.654Z,56.12
2022-10-02T18:24:05.373Z,55.99
2022-10-02T18:26:52.002Z,56.14
2022-10-02T18:29:37.424Z,56.32
2022-10-02T18:32:31.162Z,56.27
2022-10-02T18:35:29.296Z,56.28
2022-10-02T18:38:18.481Z,56.58
2022-10-02T18:41:10.265Z,56.39
2022-10-02T18:43:55.404Z,56.50
2022-10-02T18:46:49.713Z,56.62
2022-10-02T18:49:40.178Z,56.44
2022-10-02T18:52:59.279Z,57.38
2022-10-02T18:56:03.575Z,57.02
2022-10-02T18:58:57.802Z,57.14
2022-10-02T19:01:53.095Z,57.29
2022-10-02T19:05:05.185Z,57.66
2022-10-02T19:07:43.166Z,57.65
2022-10-02T19:10:40.900Z,57.71
2022-10-02T19:13:22.336Z,57.62
2022-10-02T19:15:54.018Z,57.89
2022-10-02T19:18:26.080Z,57.92
2022-10-02T19:21:08.460Z,58.17
2022-10-02T19:23:42.847Z,58.23
2022-10-02T19:26:21.526Z,58.06
2022-10-02T19:28:55.345Z,58.14
2022-10-02T19:31:29.379Z,58.11
2022-10-02T19:34:03.590Z,58.15
2022-10-02T19:36:40.177Z,58.15
2022-10-02T19:39:20.363Z,58.56
2022-10-02T19:41:49.948Z,58.18
2022-10-02T19:44:25.344Z,58.55
2022-10-02T19:46:58.694Z,58.65
2022-10-02T19:49:32.266Z,58.67
2022-10-02T19:52:04.603Z,58.58
2022-10-02T19:54:40.942Z,58.68
2022-10-02T19:57:16.522Z,58.88
2022-10-02T19:59:49.823Z,58.74
2022-10-02T20:02:27.505Z,59.17
2022-10-02T20:05:01.906Z,59.16
2022-10-02T20:07:35.764Z,59.01
2022-10-02T20:10:12.386Z,59.12
2022-10-02T20:12:47.581Z,59.31
2022-10-02T20:15:42.014Z,59.42
2022-10-02T20:18:13.290Z,59.44
2022-10-02T20:20:47.311Z,59.40
2022-10-02T20:23:26.873Z,59.59
2022-10-02T20:26:01.178Z,59.62
2022-10-02T20:28:39.221Z,59.70
2022-10-02T20:31:17.388Z,59.69
2022-10-02T20:33:50.550Z,59.63
2022-10-02T20:36:26.258Z,59.51
2022-10-02T20:39:02.741Z,59.40
2022-10-02T20:41:52.294Z,59.57
2022-10-02T20:44:21.869Z,59.78
2022-10-02T20:47:44.226Z,59.62
2022-10-02T20:50:47.997Z,59.50
2022-10-02T20:54:18.105Z,59.67
2022-10-02T20:58:02.099Z,59.38
2022-10-02T21:00:42.442Z,59.30
2022-10-02T21:03:42.435Z,59.15
2022-10-02T21:06:47.491Z,59.38
2022-10-02T21:09:49.646Z,59.37
2022-10-02T21:13:04.322Z,58.87
2022-10-02T21:16:07.688Z,58.80
2022-10-02T21:19:11.549Z,58.95
2022-10-02T21:22:36.360Z,58.93
2022-10-02T21:25:55.751Z,59.12
2022-10-02T21:29:23.531Z,58.84
2022-10-02T21:32:32.024Z,58.87
2022-10-02T21:35:16.872Z,58.57
2022-10-02T21:38:09.999Z,58.62
2022-10-02T21:41:23.542Z,58.70
2022-10-02T21:45:04.847Z,58.62
2022-10-02T21:48:27.704Z,58.29
2022-10-02T21:52:03.661Z,57.77
2022-10-02T21:55:19.229Z,57.80
2022-10-02T21:58:39.845Z,57.58
2022-10-02T22:02:08.577Z,57.62
2022-10-02T22:05:25.941Z,57.92
2022-10-02T22:08:08.209Z,58.07
2022-10-02T22:10:49.414Z,57.85
2022-10-02T22:13:28.340Z,57.66
2022-10-02T22:16:20.180Z,57.55
2022-10-02T22:18:55.861Z,57.59
2022-10-02T22:22:07.375Z,57.80
2022-10-02T22:25:04.922Z,57.92
2022-10-02T22:28:15.643Z,57.98
2022-10-02T22:31:09.699Z,58.09
2022-10-02T22:34:05.244Z,57.29
2022-10-02T22:37:08.113Z,57.74
2022-10-02T22:39:43.854Z,57.66
2022-10-02T22:42:20.525Z,57.64
2022-10-02T22:44:57.858Z,57.70
2022-10-02T22:47:36.470Z,57.77
2022-10-02T22:50:13.131Z,57.62
2022-10-02T22:52:49.874Z,57.67
2022-10-02T22:55:28.997Z,57.92
2022-10-02T22:58:03.979Z,57.97
2022-10-02T23:00:51.254Z,57.88
2022-10-02T23:03:31.506Z,57.75
2022-10-02T23:06:05.892Z,57.75
2022-10-02T23:08:43.023Z,57.83
2022-10-02T23:11:18.748Z,57.85
2022-10-02T23:13:53.645Z,57.57
2022-10-02T23:16:35.216Z,57.76
2022-10-02T23:19:13.667Z,57.93
2022-10-02T23:21:50.064Z,58.04
2022-10-02T23:24:28.645Z,58.12
2022-10-02T23:27:11.995Z,57.95
2022-10-02T23:29:53.639Z,58.12
2022-10-02T23:32:32.124Z,57.88
2022-10-02T23:35:12.250Z,58.13
2022-10-02T23:37:52.365Z,57.74
2022-10-02T23:40:44.207Z,58.02
2022-10-02T23:43:20.531Z,58.05
2022-10-02T23:45:58.782Z,57.71
2022-10-02T23:48:31.156Z,57.90
2022-10-02T23:51:16.143Z,57.56
2022-10-02T23:54:14.450Z,57.60
2022-10-02T23:57:19.610Z,57.22
